createdAt,value
2023-02-11T00:02:19.043Z,102299.31
2023-02-11T00:04:45.780Z,102293.44
2023-02-11T00:07:12.230Z,102305.50
2023-02-11T00:09:38.934Z,102302.94
2023-02-11T00:12:05.549Z,102307.16
2023-02-11T00:14:32.009Z,102317.72
2023-02-11T00:16:58.751Z,102315.00
2023-02-11T00:19:25.271Z,102321.22
2023-02-11T00:21:51.715Z,102329.06
2023-02-11T00:24:18.199Z,102339.41
2023-02-11T00:26:44.935Z,102324.50
2023-02-11T00:29:11.383Z,102329.81
2023-02-11T00:31:38.275Z,102320.91
2023-02-11T00:34:04.826Z,102304.31
2023-02-11T00:36:31.618Z,102294.34
2023-02-11T00:38:59.298Z,102290.94
2023-02-11T00:41:26.219Z,102288.31
2023-02-11T00:43:53.343Z,102276.78
2023-02-11T00:46:20.038Z,102288.22
2023-02-11T00:48:46.529Z,102296.09
2023-02-11T00:51:13.248Z,102311.63
2023-02-11T00:53:39.708Z,102314.16
2023-02-11T00:56:06.778Z,102314.84
2023-02-11T00:58:33.730Z,102312.19
2023-02-11T01:01:00.313Z,102303.41
2023-02-11T01:03:27.137Z,102299.03
2023-02-11T01:05:54.121Z,102302.22
2023-02-11T01:08:20.743Z,102288.41
2023-02-11T01:10:58.189Z,102284.00
2023-02-11T01:13:26.177Z,102284.78
2023-02-11T01:15:52.877Z,102270.75
2023-02-11T01:18:19.693Z,102257.44
2023-02-11T01:20:46.253Z,102253.91
2023-02-11T01:23:12.726Z,102233.03
2023-02-11T01:25:39.272Z,102236.44
2023-02-11T01:28:05.792Z,102234.53
2023-02-11T01:30:32.349Z,102234.28
2023-02-11T01:32:58.806Z,102239.63
2023-02-11T01:35:25.459Z,102221.38
2023-02-11T01:37:51.916Z,102223.72
2023-02-11T01:40:18.809Z,102223.59
2023-02-11T01:42:45.323Z,102219.31
2023-02-11T01:45:48.915Z,102215.59
2023-02-11T01:48:47.039Z,102213.94
2023-02-11T01:51:21.990Z,102202.34
2023-02-11T01:54:08.707Z,102203.16
2023-02-11T01:56:58.646Z,102191.69
2023-02-11T01:59:32.357Z,102190.09
2023-02-11T02:02:04.965Z,102198.66
2023-02-11T02:04:35.681Z,102203.84
2023-02-11T02:07:22.487Z,102199.50
2023-02-11T02:09:57.847Z,102192.25
2023-02-11T02:12:24.381Z,102186.78
2023-02-11T02:14:50.840Z,102175.41
2023-02-11T02:17:34.892Z,102181.66
2023-02-11T02:20:38.904Z,102185.78
2023-02-11T02:23:11.345Z,102186.44
2023-02-11T02:26:21.115Z,102187.31
2023-02-11T02:29:19.989Z,102180.44
2023-02-11T02:32:11.207Z,102186.16
2023-02-11T02:35:15.045Z,102195.63
2023-02-11T02:38:07.757Z,102188.88
2023-02-11T02:40:44.646Z,102181.84
2023-02-11T02:43:11.580Z,102171.94
2023-02-11T02:45:38.083Z,102171.19
2023-02-11T02:48:04.746Z,102160.59
2023-02-11T02:50:36.465Z,102156.13
2023-02-11T02:53:23.964Z,102150.56
2023-02-11T02:56:06.481Z,102153.44
2023-02-11T02:58:54.708Z,102148.81
2023-02-11T03:01:37.973Z,102157.72
2023-02-11T03:04:17.789Z,102165.59
2023-02-11T03:06:52.296Z,102147.94
2023-02-11T03:09:30.149Z,102144.31
2023-02-11T03:11:56.928Z,102135.28
2023-02-11T03:14:26.830Z,102128.22
2023-02-11T03:16:55.824Z,102136.94
2023-02-11T03:19:26.381Z,102132.22
2023-02-11T03:21:54.847Z,102133.09
2023-02-11T03:24:34.921Z,102123.69
2023-02-11T03:27:15.170Z,102133.09
2023-02-11T03:30:22.005Z,102139.19
2023-02-11T03:32:53.747Z,102138.44
2023-02-11T03:35:26.257Z,102140.25
2023-02-11T03:38:01.917Z,102139.31
2023-02-11T03:40:32.664Z,102145.41
2023-02-11T03:43:19.255Z,102146.81
2023-02-11T03:45:48.582Z,102139.19
2023-02-11T03:48:25.404Z,102142.50
2023-02-11T03:50:54.385Z,102133.06
2023-02-11T03:53:22.983Z,102129.50
2023-02-11T03:55:52.449Z,102138.97
2023-02-11T03:58:19.376Z,102144.25
2023-02-11T04:00:46.406Z,102134.56
2023-02-11T04:03:13.837Z,102142.56
2023-02-11T04:05:40.750Z,102136.25
2023-02-11T04:08:07.909Z,102147.63
2023-02-11T04:10:34.588Z,102129.94
2023-02-11T04:13:01.086Z,102128.41
2023-02-11T04:15:27.660Z,102123.06
2023-02-11T04:17:54.108Z,102132.84
2023-02-11T04:20:20.683Z,102140.47
2023-02-11T04:22:47.168Z,102139.50
2023-02-11T04:25:13.697Z,102136.91
2023-02-11T04:27:40.151Z,102156.06
2023-02-11T04:30:08.007Z,102139.25
2023-02-11T04:32:34.499Z,102140.38
2023-02-11T04:35:01.095Z,102136.78
2023-02-11T04:37:27.608Z,102133.28
2023-02-11T04:39:54.110Z,102133.28
2023-02-11T04:42:20.643Z,102132.25
2023-02-11T04:44:47.097Z,102134.97
2023-02-11T04:47:15.226Z,102131.44
2023-02-11T04:49:42.373Z,102124.66
2023-02-11T04:52:09.134Z,102119.97
2023-02-11T04:54:35.561Z,102113.13
2023-02-11T04:57:02.646Z,102116.31
2023-02-11T04:59:29.099Z,102106.56
2023-02-11T05:01:55.874Z,102104.16
2023-02-11T05:04:22.431Z,102107.94
2023-02-11T05:06:48.955Z,102104.16
2023-02-11T05:09:15.569Z,102096.16
2023-02-11T05:11:42.485Z,102096.34
2023-02-11T05:14:09.068Z,102089.28
2023-02-11T05:16:35.782Z,102088.31
2023-02-11T05:19:02.363Z,102085.97
2023-02-11T05:21:29.231Z,102080.28
2023-02-11T05:23:55.714Z,102076.16
2023-02-11T05:26:22.153Z,102069.03
2023-02-11T05:28:49.328Z,102060.06
2023-02-11T05:31:16.718Z,102058.59
2023-02-11T05:33:43.237Z,102059.63
2023-02-11T05:36:13.260Z,102061.19
2023-02-11T05:38:40.867Z,102058.47
2023-02-11T05:41:07.505Z,102057.63
2023-02-11T05:43:35.377Z,102058.38
2023-02-11T05:46:02.855Z,102053.81
2023-02-11T05:48:29.455Z,102037.81
2023-02-11T05:50:55.895Z,102045.88
2023-02-11T05:53:22.436Z,102041.38
2023-02-11T05:55:49.239Z,102031.63
2023-02-11T05:58:15.932Z,102056.28
2023-02-11T06:00:42.580Z,102054.53
2023-02-11T06:03:09.136Z,102048.44
2023-02-11T06:05:35.699Z,102056.28
2023-02-11T06:08:02.155Z,102061.56
2023-02-11T06:10:28.659Z,102053.81
2023-02-11T06:12:55.086Z,102065.53
2023-02-11T06:15:21.570Z,102077.53
2023-02-11T06:17:48.058Z,102071.63
2023-02-11T06:20:14.684Z,102072.63
2023-02-11T06:22:41.250Z,102066.38
2023-02-11T06:25:07.888Z,102074.69
2023-02-11T06:27:34.347Z,102073.53
2023-02-11T06:30:00.904Z,102076.69
2023-02-11T06:32:45.732Z,102068.66
2023-02-11T06:35:14.422Z,102064.25
2023-02-11T06:37:41.632Z,102056.19
2023-02-11T06:40:08.785Z,102060.84
2023-02-11T06:42:36.196Z,102051.88
2023-02-11T06:45:06.294Z,102052.66
2023-02-11T06:47:32.876Z,102048.19
2023-02-11T06:49:59.440Z,102043.16
2023-02-11T06:52:26.025Z,102053.66
2023-02-11T06:54:52.497Z,102049.03
2023-02-11T06:57:19.025Z,102049.84
2023-02-11T06:59:45.548Z,102063.78
2023-02-11T07:02:12.209Z,102064.75
2023-02-11T07:04:38.748Z,102063.78
2023-02-11T07:07:05.273Z,102054.06
2023-02-11T07:09:31.831Z,102048.06
2023-02-11T07:11:58.300Z,102057.06
2023-02-11T07:14:25.510Z,102041.19
2023-02-11T07:16:51.982Z,102048.13
2023-02-11T07:19:18.412Z,102047.09
2023-02-11T07:21:44.865Z,102035.66
2023-02-11T07:24:11.622Z,102026.81
2023-02-11T07:26:38.539Z,102033.06
2023-02-11T07:29:05.329Z,102044.13
2023-02-11T07:31:32.341Z,102038.03
2023-02-11T07:34:01.151Z,102032.03
2023-02-11T07:36:29.386Z,102025.19
2023-02-11T07:38:56.081Z,102028.88
2023-02-11T07:41:23.341Z,102022.03
2023-02-11T07:43:50.362Z,102012.06
2023-02-11T07:46:22.529Z,102018.00
2023-02-11T07:48:49.291Z,102027.38
2023-02-11T07:51:19.328Z,102023.97
2023-02-11T07:53:46.247Z,102030.38
2023-02-11T07:56:14.940Z,102027.97
2023-02-11T07:58:44.877Z,102024.41
2023-02-11T08:01:14.718Z,102025.41
2023-02-11T08:03:42.761Z,102043.63
2023-02-11T08:06:12.477Z,102025.25
2023-02-11T08:08:39.299Z,102009.94
2023-02-11T08:11:08.112Z,102013.69
2023-02-11T08:13:35.291Z,102021.28
2023-02-11T08:16:02.297Z,102037.03
2023-02-11T08:18:29.561Z,102023.75
2023-02-11T08:20:56.267Z,102055.13
2023-02-11T08:23:22.744Z,102074.09
2023-02-11T08:25:49.287Z,102068.09
2023-02-11T08:28:16.006Z,102077.72
2023-02-11T08:30:42.503Z,102076.66
2023-02-11T08:33:09.020Z,102070.53
2023-02-11T08:35:35.782Z,102078.31
2023-02-11T08:38:02.253Z,102065.44
2023-02-11T08:40:28.760Z,102064.50
2023-02-11T08:42:55.245Z,102068.88
2023-02-11T08:45:21.695Z,102069.13
2023-02-11T08:47:48.158Z,102066.69
2023-02-11T08:50:14.654Z,102073.88
2023-02-11T08:52:41.083Z,102067.41
2023-02-11T08:55:07.769Z,102057.09
2023-02-11T08:57:34.285Z,102042.16
2023-02-11T09:00:02.636Z,102038.41
2023-02-11T09:02:29.908Z,102042.97
2023-02-11T09:04:56.425Z,102042.13
2023-02-11T09:07:22.897Z,102038.28
2023-02-11T09:09:49.669Z,102047.31
2023-02-11T09:12:16.120Z,102033.50
2023-02-11T09:14:43.016Z,102042.53
2023-02-11T09:17:09.609Z,102048.69
2023-02-11T09:19:36.179Z,102051.16
2023-02-11T09:22:02.740Z,102057.41
2023-02-11T09:24:30.634Z,102056.66
2023-02-11T09:26:57.052Z,102057.66
2023-02-11T09:29:23.591Z,102062.38
2023-02-11T09:31:50.519Z,102073.53
2023-02-11T09:34:17.095Z,102061.16
2023-02-11T09:36:43.588Z,102055.72
2023-02-11T09:39:14.281Z,102051.97
2023-02-11T09:42:10.864Z,102069.31
2023-02-11T09:44:39.219Z,102067.13
2023-02-11T09:47:23.426Z,102079.78
2023-02-11T09:50:00.016Z,102090.66
2023-02-11T09:52:45.147Z,102089.50
2023-02-11T09:55:17.017Z,102093.00
2023-02-11T09:57:43.632Z,102092.94
2023-02-11T10:00:23.550Z,102100.88
2023-02-11T10:03:11.936Z,102088.50
2023-02-11T10:06:13.670Z,102106.47
2023-02-11T10:08:58.976Z,102105.41
2023-02-11T10:11:35.387Z,102100.91
2023-02-11T10:14:18.564Z,102101.16
2023-02-11T10:17:04.540Z,102105.56
2023-02-11T10:19:46.202Z,102106.28
2023-02-11T10:22:12.561Z,102098.53
2023-02-11T10:24:51.832Z,102087.88
2023-02-11T10:27:21.696Z,102094.13
2023-02-11T10:29:56.887Z,102099.47
2023-02-11T10:32:43.088Z,102103.53
2023-02-11T10:35:18.402Z,102116.78
2023-02-11T10:37:45.671Z,102113.28
2023-02-11T10:40:18.024Z,102113.28
2023-02-11T10:42:48.857Z,102108.72
2023-02-11T10:45:39.084Z,102099.31
2023-02-11T10:48:26.695Z,102091.38
2023-02-11T10:51:14.559Z,102085.00
2023-02-11T10:53:41.365Z,102085.56
2023-02-11T10:56:12.682Z,102083.97
2023-02-11T10:58:45.117Z,102089.13
2023-02-11T11:01:24.027Z,102086.91
2023-02-11T11:03:52.891Z,102088.84
2023-02-11T11:06:31.525Z,102078.69
2023-02-11T11:08:58.264Z,102072.41
2023-02-11T11:11:26.277Z,102064.53
2023-02-11T11:13:52.699Z,102074.03
2023-02-11T11:16:24.132Z,102075.00
2023-02-11T11:19:13.549Z,102071.53
2023-02-11T11:21:51.023Z,102075.75
2023-02-11T11:24:34.388Z,102073.81
2023-02-11T11:27:04.116Z,102062.66
2023-02-11T11:29:46.177Z,102073.81
2023-02-11T11:32:20.744Z,102062.38
2023-02-11T11:35:00.787Z,102065.03
2023-02-11T11:37:33.291Z,102065.31
2023-02-11T11:40:28.125Z,102063.81
2023-02-11T11:43:05.598Z,102084.63
2023-02-11T11:45:32.518Z,102073.44
2023-02-11T11:48:08.240Z,102076.81
2023-02-11T11:50:53.813Z,102065.38
2023-02-11T11:53:38.876Z,102076.34
2023-02-11T11:56:11.411Z,102086.13
2023-02-11T11:58:38.146Z,102087.97
2023-02-11T12:01:04.527Z,102067.50
2023-02-11T12:03:58.671Z,102067.31
2023-02-11T12:06:39.026Z,102068.09
2023-02-11T12:09:29.447Z,102073.69
2023-02-11T12:12:08.097Z,102078.66
2023-02-11T12:14:35.037Z,102074.22
2023-02-11T12:17:20.194Z,102062.91
2023-02-11T12:20:00.286Z,102050.72
2023-02-11T12:23:02.293Z,102055.63
2023-02-11T12:25:35.907Z,102053.69
2023-02-11T12:28:20.338Z,102064.38
2023-02-11T12:31:19.857Z,102060.50
2023-02-11T12:34:17.894Z,102059.78
2023-02-11T12:37:02.965Z,102057.75
2023-02-11T12:39:42.803Z,102068.59
2023-02-11T12:42:39.224Z,102072.22
2023-02-11T12:45:11.643Z,102058.19
2023-02-11T12:47:56.532Z,102067.63
2023-02-11T12:50:27.893Z,102060.78
2023-02-11T12:53:29.404Z,102054.09
2023-02-11T12:56:00.560Z,102055.81
2023-02-11T12:58:43.975Z,102056.47
2023-02-11T13:01:19.693Z,102057.78
2023-02-11T13:04:24.249Z,102060.88
2023-02-11T13:07:06.327Z,102059.34
2023-02-11T13:09:41.992Z,102066.28
2023-02-11T13:12:31.935Z,102072.69
2023-02-11T13:15:04.763Z,102073.44
2023-02-11T13:18:01.151Z,102072.72
2023-02-11T13:20:44.341Z,102070.72
2023-02-11T13:23:25.894Z,102068.00
2023-02-11T13:26:08.095Z,102077.81
2023-02-11T13:28:53.139Z,102082.19
2023-02-11T13:31:20.555Z,102080.06
2023-02-11T13:33:49.764Z,102088.47
2023-02-11T13:36:25.494Z,102088.56
2023-02-11T13:38:59.963Z,102099.16
2023-02-11T13:41:30.982Z,102101.16
2023-02-11T13:44:00.406Z,102105.22
2023-02-11T13:46:30.230Z,102108.69
2023-02-11T13:48:57.916Z,102113.97
2023-02-11T13:51:37.631Z,102107.03
2023-02-11T13:54:05.933Z,102109.38
2023-02-11T13:56:38.608Z,102104.31
2023-02-11T13:59:33.408Z,102107.53
2023-02-11T14:02:18.457Z,102113.97
2023-02-11T14:05:22.415Z,102118.28
2023-02-11T14:08:28.783Z,102114.69
2023-02-11T14:10:55.381Z,102111.72
2023-02-11T14:13:51.017Z,102110.69
2023-02-11T14:16:37.054Z,102106.97
2023-02-11T14:19:05.361Z,102119.13
2023-02-11T14:21:38.057Z,102120.84
2023-02-11T14:24:04.941Z,102123.72
2023-02-11T14:26:31.417Z,102126.00
2023-02-11T14:29:17.481Z,102115.69
2023-02-11T14:31:55.021Z,102122.31
2023-02-11T14:34:27.210Z,102135.97
2023-02-11T14:36:58.658Z,102132.16
2023-02-11T14:39:28.008Z,102127.66
2023-02-11T14:41:54.805Z,102121.94
2023-02-11T14:44:28.078Z,102108.97
2023-02-11T14:46:56.304Z,102109.81
2023-02-11T14:49:36.199Z,102121.06
2023-02-11T14:52:24.132Z,102115.06
2023-02-11T14:54:52.102Z,102122.53
2023-02-11T14:57:20.351Z,102123.78
2023-02-11T15:00:05.065Z,102129.03
2023-02-11T15:02:37.168Z,102130.03
2023-02-11T15:05:21.155Z,102134.25
2023-02-11T15:07:54.246Z,102143.94
2023-02-11T15:10:47.316Z,102154.66
2023-02-11T15:13:20.452Z,102162.16
2023-02-11T15:15:48.833Z,102158.09
2023-02-11T15:24:06.219Z,102156.38
2023-02-11T15:48:05.501Z,102169.25
2023-02-11T15:50:36.774Z,102178.91
2023-02-11T15:53:19.978Z,102179.72
2023-02-11T15:55:48.938Z,102183.91
2023-02-11T15:58:15.686Z,102178.72
2023-02-11T16:00:52.164Z,102180.56
2023-02-11T16:06:40.102Z,102185.66
2023-02-11T16:09:33.951Z,102184.00
2023-02-11T16:12:23.523Z,102189.16
2023-02-11T16:14:50.230Z,102196.47
2023-02-11T16:17:19.441Z,102197.13
2023-02-11T16:19:48.566Z,102204.22
2023-02-11T16:27:41.906Z,102210.38
2023-02-11T16:30:34.626Z,102214.16
2023-02-11T16:33:01.401Z,102208.19
2023-02-11T16:35:27.915Z,102208.28
2023-02-11T16:40:44.525Z,102203.75
2023-02-11T16:43:11.226Z,102202.63
2023-02-11T16:45:38.985Z,102207.72
2023-02-11T16:48:10.194Z,102207.50
2023-02-11T16:55:54.889Z,102226.75
2023-02-11T16:58:21.464Z,102236.56
2023-02-11T17:00:48.743Z,102233.00
2023-02-11T17:06:05.741Z,102240.72
2023-02-11T17:08:32.557Z,102252.31
2023-02-11T17:16:22.611Z,102268.94
2023-02-11T17:18:49.506Z,102269.97
2023-02-11T17:21:16.685Z,102261.78
2023-02-11T17:29:07.135Z,102278.69
2023-02-11T17:31:34.104Z,102276.31
2023-02-11T17:34:01.014Z,102282.84
2023-02-11T17:36:27.610Z,102284.09
2023-02-11T17:46:51.594Z,102304.34
2023-02-11T17:49:18.274Z,102312.38
2023-02-11T17:51:46.613Z,102307.66
2023-02-11T17:54:15.418Z,102303.63
2023-02-11T17:56:42.684Z,102307.09
2023-02-11T17:59:11.010Z,102307.22
2023-02-11T18:01:39.136Z,102319.53
2023-02-11T18:04:07.333Z,102315.94
2023-02-11T18:06:34.038Z,102318.59
2023-02-11T18:09:04.088Z,102320.41
2023-02-11T18:11:32.527Z,102320.47
2023-02-11T18:14:00.026Z,102334.72
2023-02-11T18:16:28.934Z,102325.69
2023-02-11T18:18:57.693Z,102338.75
2023-02-11T18:21:24.524Z,102345.19
2023-02-11T18:23:51.379Z,102348.47
2023-02-11T18:26:20.493Z,102352.66
2023-02-11T18:28:47.683Z,102357.88
2023-02-11T18:31:14.660Z,102350.72
2023-02-11T18:33:42.525Z,102357.09
2023-02-11T18:36:11.733Z,102357.81
2023-02-11T18:38:38.763Z,102360.59
2023-02-11T18:41:05.706Z,102360.59
2023-02-11T18:43:33.702Z,102378.38
2023-02-11T18:46:01.664Z,102385.31
2023-02-11T18:48:28.515Z,102396.38
2023-02-11T18:50:55.771Z,102394.66
2023-02-11T18:53:23.566Z,102400.16
2023-02-11T18:55:50.286Z,102393.94
2023-02-11T18:58:17.807Z,102400.25
2023-02-11T19:00:46.532Z,102400.09
2023-02-11T19:03:13.183Z,102399.31
2023-02-11T19:05:48.112Z,102413.50
2023-02-11T19:08:15.390Z,102417.59
2023-02-11T19:10:43.667Z,102419.44
2023-02-11T19:13:10.608Z,102425.31
2023-02-11T19:15:44.362Z,102420.88
2023-02-11T19:18:12.341Z,102422.91
2023-02-11T19:20:40.533Z,102424.59
2023-02-11T19:23:07.041Z,102430.03
2023-02-11T19:25:33.513Z,102438.41
2023-02-11T19:28:00.310Z,102440.25
2023-02-11T19:30:27.552Z,102449.63
2023-02-11T19:32:57.013Z,102450.31
2023-02-11T19:35:24.673Z,102445.41
2023-02-11T19:37:51.195Z,102449.28
2023-02-11T19:40:18.018Z,102448.56
2023-02-11T19:42:44.602Z,102449.50
2023-02-11T19:45:11.233Z,102445.91
2023-02-11T19:47:37.769Z,102444.97
2023-02-11T19:50:05.624Z,102451.66
2023-02-11T19:52:32.340Z,102454.44
2023-02-11T19:55:00.406Z,102431.94
2023-02-11T19:57:26.959Z,102439.88
2023-02-11T19:59:54.886Z,102445.81
2023-02-11T20:02:21.566Z,102445.53
2023-02-11T20:04:48.167Z,102453.66
2023-02-11T20:07:14.637Z,102458.31
2023-02-11T20:09:42.527Z,102462.47
2023-02-11T20:12:09.734Z,102462.91
2023-02-11T20:14:36.228Z,102474.81
2023-02-11T20:17:02.740Z,102473.28
2023-02-11T20:19:30.564Z,102485.25
2023-02-11T20:21:57.311Z,102480.38
2023-02-11T20:24:25.098Z,102478.50
2023-02-11T20:26:55.383Z,102480.31
2023-02-11T20:29:23.243Z,102478.84
2023-02-11T20:31:50.611Z,102477.91
2023-02-11T20:34:17.701Z,102486.75
2023-02-11T20:36:51.463Z,102487.75
2023-02-11T20:39:19.159Z,102488.09
2023-02-11T20:41:46.117Z,102490.25
2023-02-11T20:44:13.134Z,102503.88
2023-02-11T20:46:42.779Z,102506.22
2023-02-11T20:49:19.281Z,102507.28
2023-02-11T20:51:46.220Z,102504.78
2023-02-11T20:54:19.262Z,102504.06
2023-02-11T20:56:48.054Z,102508.59
2023-02-11T20:59:16.584Z,102519.19
2023-02-11T21:01:45.425Z,102521.84
2023-02-11T21:04:13.506Z,102515.72
2023-02-11T21:06:43.409Z,102517.56
2023-02-11T21:09:13.527Z,102525.22
2023-02-11T21:11:40.253Z,102530.91
2023-02-11T21:14:07.225Z,102535.22
2023-02-11T21:16:33.948Z,102542.38
2023-02-11T21:19:01.192Z,102534.81
2023-02-11T21:21:27.709Z,102545.41
2023-02-11T21:26:29.467Z,102542.09
2023-02-11T21:28:56.076Z,102546.69
2023-02-11T21:31:28.994Z,102551.00
2023-02-11T21:33:55.996Z,102567.56
2023-02-11T21:36:23.631Z,102570.94
2023-02-11T21:38:50.537Z,102578.38
2023-02-11T21:43:58.687Z,102583.41
2023-02-11T21:46:25.388Z,102592.97
2023-02-11T21:48:52.216Z,102586.59
2023-02-11T21:51:22.351Z,102577.50
2023-02-11T21:53:56.438Z,102583.06
2023-02-11T21:56:26.257Z,102589.63
2023-02-11T21:58:54.497Z,102591.50
2023-02-11T22:01:23.816Z,102605.28
2023-02-11T22:03:50.546Z,102603.63
2023-02-11T22:06:23.269Z,102601.78
2023-02-11T22:08:50.520Z,102610.91
2023-02-11T22:11:17.046Z,102611.69
2023-02-11T22:19:07.488Z,102619.81
2023-02-11T22:21:34.064Z,102633.72
2023-02-11T22:24:00.532Z,102621.41
2023-02-11T22:26:28.054Z,102627.69
2023-02-11T22:28:55.700Z,102637.44
2023-02-11T22:31:33.369Z,102640.25
2023-02-11T22:34:00.358Z,102647.22
2023-02-11T22:36:32.956Z,102643.66
2023-02-11T23:07:22.631Z,102684.47
2023-02-11T23:09:49.169Z,102684.97
2023-02-11T23:12:15.612Z,102687.75
2023-02-11T23:14:42.667Z,102692.41
2023-02-11T23:17:09.147Z,102694.94
2023-02-11T23:19:35.769Z,102697.69
2023-02-11T23:22:03.468Z,102703.16
2023-02-11T23:24:29.960Z,102697.81
2023-02-11T23:26:56.422Z,102706.41
2023-02-11T23:29:22.866Z,102703.88
2023-02-11T23:31:49.915Z,102709.97
2023-02-11T23:34:23.910Z,102704.78
2023-02-11T23:36:50.534Z,102709.16
2023-02-11T23:39:17.159Z,102713.50
2023-02-11T23:41:44.596Z,102709.88
2023-02-11T23:44:11.714Z,102715.91
2023-02-11T23:46:38.635Z,102719.00
2023-02-11T23:49:05.172Z,102716.03
2023-02-11T23:51:31.665Z,102717.97
2023-02-11T23:53:58.103Z,102730.56
2023-02-11T23:56:27.448Z,102725.25
2023-02-11T23:58:57.533Z,102720.97
